Time;durP1;ratioP1;P1;durP2;ratioP2;P2;SDS_P1;SDS_P2;PMS_P1;PMS_P2;Temp;Humidity;BMP_temperature;BMP_pressure;BME280_temperature;BME280_humidity;BME280_pressure;Samples;Min_cycle;Max_cycle;Signal;HPM_P1;HPM_P2
2024/03/09 00:00:40;;;;;;;17.20;10.18;;;;;;;3.03;68.61;97537.97;4904865;28;104520;-70
2024/03/09 00:03:09;;;;;;;19.33;11.63;;;;;;;3.07;68.50;97544.53;4906828;28;103244;-71
2024/03/09 00:05:40;;;;;;;15.73;9.40;;;;;;;3.04;68.85;97540.44;4915365;28;102775;-70
2024/03/09 00:08:09;;;;;;;16.63;9.20;;;;;;;3.05;68.81;97542.06;4909152;28;102643;-70
2024/03/09 00:10:39;;;;;;;18.92;11.10;;;;;;;2.69;69.56;97542.03;4892820;28;106294;-70
2024/03/09 00:13:10;;;;;;;17.02;10.05;;;;;;;2.75;70.01;97545.84;4915178;28;103865;-69
2024/03/09 00:15:39;;;;;;;17.38;10.38;;;;;;;2.72;70.25;97541.72;4915488;28;104113;-70
2024/03/09 00:18:07;;;;;;;15.43;9.18;;;;;;;2.77;69.99;97549.94;4893375;28;103899;-70
2024/03/09 00:20:36;;;;;;;25.63;12.52;;;;;;;2.70;69.40;97548.91;4916399;28;103813;-70
2024/03/09 00:23:07;;;;;;;18.13;10.18;;;;;;;2.76;69.77;97540.47;4875182;28;104703;-70
2024/03/09 00:25:37;;;;;;;25.52;12.98;;;;;;;2.72;69.17;97546.16;4868054;28;104545;-70
2024/03/09 00:28:06;;;;;;;19.85;12.32;;;;;;;2.45;70.73;97535.56;4858536;28;102984;-71
2024/03/09 00:30:37;;;;;;;21.20;11.50;;;;;;;2.56;70.43;97538.94;4884077;28;103763;-71
2024/03/09 00:33:06;;;;;;;30.00;14.15;;;;;;;2.59;71.06;97551.72;4899113;28;104108;-71
2024/03/09 00:35:36;;;;;;;22.23;11.82;;;;;;;2.69;71.33;97551.69;4917079;28;102762;-72
2024/03/09 00:38:06;;;;;;;17.63;10.52;;;;;;;2.84;70.06;97559.84;4914931;28;103659;-72
2024/03/09 00:40:35;;;;;;;20.00;10.52;;;;;;;2.85;70.17;97545.78;4911057;28;104652;-72
2024/03/09 00:43:04;;;;;;;17.85;10.45;;;;;;;2.89;69.91;97552.38;4920480;28;103277;-72
2024/03/09 00:45:33;;;;;;;18.20;10.32;;;;;;;2.96;69.90;97548.19;4909931;28;102824;-72
2024/03/09 00:48:03;;;;;;;19.42;10.73;;;;;;;2.91;69.48;97555.66;4889464;28;104288;-71
2024/03/09 00:50:31;;;;;;;19.70;11.70;;;;;;;2.72;70.19;97552.19;4909217;28;103831;-71
2024/03/09 00:52:59;;;;;;;18.70;9.77;;;;;;;2.81;70.54;97546.06;4918321;28;103444;-71
2024/03/09 00:55:31;;;;;;;19.67;10.20;;;;;;;2.86;70.56;97552.69;4914571;28;102704;-71
2024/03/09 00:58:01;;;;;;;21.88;12.35;;;;;;;2.51;70.47;97528.09;4918455;28;102797;-71
2024/03/09 01:00:29;;;;;;;22.83;13.13;;;;;;;2.21;72.36;97517.78;4909966;28;104237;-72
2024/03/09 01:02:57;;;;;;;19.40;12.27;;;;;;;2.23;72.80;97520.25;4911907;28;103195;-72
2024/03/09 01:05:26;;;;;;;18.25;11.50;;;;;;;2.19;73.11;97521.50;4913486;28;102853;-70
2024/03/09 01:07:56;;;;;;;21.15;12.10;;;;;;;2.39;71.94;97515.22;4915378;28;103914;-69
2024/03/09 01:10:24;;;;;;;21.13;11.38;;;;;;;2.20;73.19;97504.84;4898139;28;103353;-71
2024/03/09 01:12:55;;;;;;;19.65;12.27;;;;;;;2.15;72.52;97503.50;4908921;28;103827;-71
2024/03/09 01:15:23;;;;;;;22.08;13.13;;;;;;;1.74;73.96;97500.38;4912733;28;102741;-70
2024/03/09 01:17:51;;;;;;;21.15;12.52;;;;;;;1.61;74.96;97499.81;4903590;28;103054;-70
2024/03/09 01:20:19;;;;;;;21.95;11.27;;;;;;;1.94;74.44;97500.28;4908296;28;104605;-70
2024/03/09 01:22:47;;;;;;;20.05;11.82;;;;;;;2.00;73.81;97499.72;4909870;28;109068;-69
2024/03/09 01:25:15;;;;;;;25.98;12.90;;;;;;;1.98;72.83;97506.88;4908025;28;103016;-71
2024/03/09 01:27:44;;;;;;;17.67;10.30;;;;;;;2.21;73.79;97512.53;4905913;28;102860;-70
2024/03/09 01:30:15;;;;;;;20.77;11.63;;;;;;;2.43;72.81;97513.94;4905975;28;103202;-71
2024/03/09 01:32:43;;;;;;;18.63;10.57;;;;;;;2.44;71.83;97523.44;4911107;28;103470;-71
2024/03/09 01:35:13;;;;;;;19.98;11.25;;;;;;;2.51;72.12;97518.47;4911562;28;102794;-70
2024/03/09 01:37:44;;;;;;;16.27;9.90;;;;;;;2.46;71.69;97518.91;4904301;28;102739;-70
2024/03/09 01:40:13;;;;;;;16.75;9.60;;;;;;;2.53;71.69;97523.53;4913590;28;103377;-70
2024/03/09 01:42:43;;;;;;;18.55;9.82;;;;;;;2.45;71.42;97519.03;4909464;28;103098;-71
2024/03/09 01:45:12;;;;;;;19.02;10.45;;;;;;;2.33;72.24;97526.25;4911814;28;103519;-70
2024/03/09 01:47:41;;;;;;;21.52;13.02;;;;;;;2.18;72.07;97527.72;4903550;28;103508;-70
2024/03/09 01:50:12;;;;;;;25.23;12.70;;;;;;;2.05;72.99;97522.81;4895075;28;106082;-71
2024/03/09 01:52:47;;;;;;;18.58;11.52;;;;;;;2.05;73.57;97515.78;4913856;28;103286;-71
2024/03/09 01:55:18;;;;;;;20.42;12.35;;;;;;;2.12;72.92;97514.25;4906322;28;102776;-70
2024/03/09 01:57:50;;;;;;;23.33;12.32;;;;;;;2.02;73.16;97503.00;4911639;28;102765;-71
2024/03/09 02:00:21;;;;;;;21.10;11.85;;;;;;;2.05;72.97;97505.34;4908484;28;106259;-70
2024/03/09 02:02:52;;;;;;;18.15;9.70;;;;;;;2.11;72.70;97504.75;4910395;28;106346;-71
2024/03/09 02:05:20;;;;;;;17.30;9.32;;;;;;;2.23;72.37;97499.38;4914294;28;106006;-70
2024/03/09 02:07:48;;;;;;;22.10;12.85;;;;;;;2.06;72.67;97488.69;4901081;28;102786;-70
2024/03/09 02:10:18;;;;;;;17.60;10.45;;;;;;;2.12;73.21;97492.50;4915777;28;103782;-71
2024/03/09 02:12:46;;;;;;;21.50;10.60;;;;;;;2.21;72.70;97491.66;4918748;28;103357;-71
2024/03/09 02:15:16;;;;;;;18.90;11.20;;;;;;;2.25;72.52;97489.56;4917793;28;102729;-70
2024/03/09 02:17:48;;;;;;;21.33;11.32;;;;;;;2.29;72.60;97488.31;4913099;28;102735;-70
2024/03/09 02:20:17;;;;;;;22.10;12.55;;;;;;;2.32;72.79;97490.66;4919050;28;103295;-70
2024/03/09 02:22:46;;;;;;;17.90;10.48;;;;;;;2.37;72.78;97483.19;4913803;28;103518;-70
2024/03/09 02:25:18;;;;;;;19.13;11.40;;;;;;;2.37;72.63;97477.97;4900138;28;102957;-70
2024/03/09 02:27:46;;;;;;;17.63;10.48;;;;;;;2.41;73.13;97489.78;4903517;28;102822;-70
2024/03/09 02:30:14;;;;;;;18.63;10.82;;;;;;;2.46;72.64;97487.53;4903133;28;104988;-70
2024/03/09 02:32:43;;;;;;;29.00;13.25;;;;;;;2.31;73.52;97483.78;4915542;28;103393;-70
2024/03/09 02:35:11;;;;;;;19.23;10.70;;;;;;;2.34;73.47;97483.47;4917440;28;102724;-70
2024/03/09 02:37:41;;;;;;;20.30;12.23;;;;;;;2.13;73.80;97475.88;4898851;28;102863;-70
2024/03/09 02:40:11;;;;;;;25.67;12.57;;;;;;;2.02;75.10;97476.91;4919676;28;103059;-71
2024/03/09 02:43:04;;;;;;;20.70;12.02;;;;;;;2.15;74.83;97469.53;4917347;28;106503;-70
2024/03/09 02:45:30;;;;;;;18.85;10.60;;;;;;;2.22;74.67;97466.38;4912737;28;102624;-70
2024/03/09 02:47:58;;;;;;;18.10;10.18;;;;;;;2.40;73.44;97471.63;4909831;28;103209;-70
2024/03/09 02:50:27;;;;;;;21.63;10.77;;;;;;;2.51;73.50;97475.81;4924818;28;103896;-70
2024/03/09 02:52:55;;;;;;;18.52;10.10;;;;;;;2.58;73.47;97476.88;4915517;28;103184;-70
2024/03/09 02:55:26;;;;;;;20.67;11.32;;;;;;;2.65;73.21;97477.94;4916771;28;103993;-70
2024/03/09 02:57:56;;;;;;;21.90;13.02;;;;;;;2.60;72.00;97474.94;4921157;28;102763;-70
2024/03/09 03:00:27;;;;;;;22.00;12.88;;;;;;;2.57;72.67;97475.22;4903326;28;103766;-70
2024/03/09 03:05:43;;;;;;;19.20;11.77;;;;;;;2.45;73.70;97459.75;4912516;28;102655;-70
2024/03/09 03:08:14;;;;;;;21.40;12.00;;;;;;;2.48;73.88;97459.47;4915087;28;102714;-71
2024/03/09 03:10:42;;;;;;;22.17;11.63;;;;;;;2.17;75.38;97458.13;4921200;28;103878;-70
2024/03/09 03:13:14;;;;;;;20.48;11.35;;;;;;;2.28;75.43;97461.38;4914046;28;103315;-70
2024/03/09 03:15:42;;;;;;;22.20;12.73;;;;;;;1.90;75.89;97451.91;4911838;28;102768;-70
2024/03/09 03:18:09;;;;;;;21.52;12.68;;;;;;;1.77;77.30;97441.78;4913666;28;102652;-70
2024/03/09 03:20:38;;;;;;;22.65;12.82;;;;;;;1.67;77.73;97423.56;4901761;28;106197;-70
2024/03/09 03:23:07;;;;;;;22.80;11.07;;;;;;;2.02;76.30;97429.03;4909571;28;103438;-70
2024/03/09 03:25:35;;;;;;;20.83;12.55;;;;;;;2.20;76.28;97429.09;4917295;28;103283;-70
2024/03/09 03:28:05;;;;;;;21.52;12.20;;;;;;;2.41;75.41;97434.06;4896263;28;102842;-71
2024/03/09 03:30:36;;;;;;;21.38;11.10;;;;;;;2.55;74.63;97436.16;4916078;28;103378;-70
2024/03/09 03:33:05;;;;;;;18.35;10.82;;;;;;;2.55;73.71;97440.56;4918930;28;103313;-70
2024/03/09 03:35:34;;;;;;;23.05;12.50;;;;;;;2.61;73.82;97426.91;4918579;28;102920;-70
2024/03/09 03:38:02;;;;;;;32.28;13.75;;;;;;;2.27;74.66;97438.00;4915656;28;104639;-70
2024/03/09 03:40:31;;;;;;;25.55;14.30;;;;;;;2.15;75.49;97440.00;4913239;28;103313;-71
2024/03/09 03:42:59;;;;;;;25.75;13.45;;;;;;;2.27;75.89;97430.97;4914953;28;103012;-70
2024/03/09 03:45:27;;;;;;;24.83;13.30;;;;;;;2.09;76.53;97433.56;4915155;28;102580;-70
2024/03/09 03:47:56;;;;;;;20.55;10.73;;;;;;;2.34;75.82;97439.06;4902263;28;102830;-70
2024/03/09 03:50:24;;;;;;;25.15;13.23;;;;;;;2.10;76.14;97432.59;4896879;28;103745;-70
2024/03/09 03:52:53;;;;;;;26.65;13.13;;;;;;;1.86;77.45;97427.06;4917694;28;104057;-70
2024/03/09 03:55:21;;;;;;;22.70;13.27;;;;;;;1.90;78.24;97418.81;4920020;28;103000;-70
2024/03/09 03:57:50;;;;;;;23.92;12.75;;;;;;;1.72;78.73;97415.31;4913238;28;102708;-70
2024/03/09 04:00:21;;;;;;;21.45;13.00;;;;;;;1.66;80.06;97398.44;4917304;28;105253;-70
2024/03/09 04:02:50;;;;;;;24.90;13.77;;;;;;;1.81;80.72;97394.38;4913745;28;109144;-70
2024/03/09 04:05:19;;;;;;;23.60;12.57;;;;;;;1.86;80.26;97393.13;4918221;28;102796;-70
2024/03/09 04:07:48;;;;;;;21.70;12.40;;;;;;;1.99;79.70;97398.81;4909072;28;102722;-70
2024/03/09 04:10:18;;;;;;;23.60;13.73;;;;;;;2.11;80.16;97389.84;4918108;28;106186;-70
2024/03/09 04:12:49;;;;;;;25.88;13.48;;;;;;;2.09;79.58;97394.38;4915256;28;107717;-70
2024/03/09 04:15:17;;;;;;;24.60;13.68;;;;;;;1.93;81.83;97388.97;4916965;28;104005;-69
2024/03/09 04:17:45;;;;;;;24.02;13.95;;;;;;;2.12;81.38;97394.09;4915603;28;102904;-70
2024/03/09 04:20:15;;;;;;;20.23;11.27;;;;;;;2.42;79.77;97389.47;4916274;28;103745;-70
2024/03/09 04:22:50;;;;;;;17.63;10.95;;;;;;;2.54;79.44;97389.28;4914435;28;102883;-70
2024/03/09 04:25:19;;;;;;;18.98;10.52;;;;;;;2.66;78.85;97390.69;4898613;28;103552;-70
2024/03/09 04:27:50;;;;;;;20.67;11.45;;;;;;;2.77;78.92;97381.78;4916278;28;102845;-70
2024/03/09 04:30:18;;;;;;;17.52;10.60;;;;;;;2.75;78.39;97379.34;4918994;28;103884;-70
2024/03/09 04:32:46;;;;;;;23.48;12.50;;;;;;;2.69;78.37;97364.25;4913648;28;103914;-70
2024/03/09 04:35:14;;;;;;;23.95;12.75;;;;;;;2.43;79.34;97359.78;4895610;28;103077;-70
2024/03/09 04:37:42;;;;;;;20.52;11.82;;;;;;;2.42;79.21;97362.53;4915428;28;103780;-70
2024/03/09 04:40:16;;;;;;;23.42;12.18;;;;;;;2.54;79.82;97365.75;4917178;28;104367;-70
2024/03/09 04:42:46;;;;;;;19.60;12.27;;;;;;;2.40;79.62;97360.06;4916174;28;103164;-70
2024/03/09 04:45:22;;;;;;;18.65;10.35;;;;;;;2.46;79.26;97356.88;4914518;28;103047;-70
2024/03/09 04:47:50;;;;;;;20.67;12.52;;;;;;;2.30;80.14;97343.66;4896108;28;102748;-70
2024/03/09 04:50:19;;;;;;;21.35;12.23;;;;;;;2.45;80.44;97341.31;4908764;28;104489;-70
2024/03/09 04:52:48;;;;;;;20.77;11.57;;;;;;;2.61;80.19;97349.31;4920460;28;107942;-70
2024/03/09 04:55:26;;;;;;;21.90;13.07;;;;;;;2.10;82.09;97341.16;4901795;28;102815;-70
2024/03/09 04:57:54;;;;;;;24.83;13.90;;;;;;;2.20;82.39;97342.88;4911651;28;103180;-70
2024/03/09 05:00:24;;;;;;;20.25;11.45;;;;;;;2.47;81.32;97337.59;4918869;28;103308;-70
2024/03/09 05:02:53;;;;;;;20.85;12.48;;;;;;;2.11;81.63;97334.16;4914805;28;103250;-70
2024/03/09 05:05:21;;;;;;;23.83;13.55;;;;;;;2.08;82.45;97324.81;4916473;28;102747;-70
2024/03/09 05:07:50;;;;;;;21.05;11.90;;;;;;;2.07;82.64;97315.34;4917854;28;104529;-71
2024/03/09 05:10:22;;;;;;;20.30;12.15;;;;;;;2.31;81.66;97311.31;4915798;28;103720;-69
2024/03/09 05:12:53;;;;;;;20.13;12.60;;;;;;;2.47;80.37;97308.84;4914880;28;110814;-69
2024/03/09 05:15:22;;;;;;;20.05;12.57;;;;;;;2.60;79.99;97307.66;4914057;28;102656;-70
2024/03/09 05:17:50;;;;;;;23.67;13.15;;;;;;;2.41;81.54;97298.16;4918249;28;102818;-70
2024/03/09 05:20:22;;;;;;;23.17;13.07;;;;;;;2.24;81.32;97291.97;4915272;28;103255;-70
2024/03/09 05:22:50;;;;;;;22.92;12.60;;;;;;;2.29;80.59;97287.13;4914969;28;109873;-70
2024/03/09 05:25:22;;;;;;;22.80;13.52;;;;;;;2.27;80.44;97287.28;4900610;28;102744;-70
2024/03/09 05:27:51;;;;;;;21.17;13.07;;;;;;;2.48;79.83;97297.41;4916326;28;102805;-69
2024/03/09 05:30:24;;;;;;;24.40;12.88;;;;;;;2.57;79.04;97306.16;4916956;28;103386;-69
2024/03/09 05:32:54;;;;;;;20.35;12.82;;;;;;;2.65;78.41;97300.16;4924856;28;107606;-70
2024/03/09 05:35:23;;;;;;;22.15;13.00;;;;;;;2.59;79.54;97298.16;4918689;28;105407;-70
2024/03/09 05:37:50;;;;;;;22.55;12.48;;;;;;;2.79;79.01;97323.16;4920129;28;103303;-69
2024/03/09 05:40:20;;;;;;;22.23;13.10;;;;;;;2.88;78.83;97331.03;4913938;28;103862;-69
2024/03/09 05:42:50;;;;;;;22.60;12.32;;;;;;;2.96;78.38;97323.25;4913832;28;107969;-75
2024/03/09 05:45:20;;;;;;;22.75;13.07;;;;;;;2.97;78.47;97314.44;4912635;28;103053;-73
2024/03/09 05:47:50;;;;;;;19.35;11.60;;;;;;;3.11;77.43;97313.84;4903340;28;103006;-73
2024/03/09 05:50:19;;;;;;;18.55;11.18;;;;;;;3.18;77.30;97314.06;4917598;28;103375;-72
2024/03/09 05:52:48;;;;;;;21.85;12.38;;;;;;;3.25;77.02;97301.16;4906692;28;106109;-71
2024/03/09 05:55:19;;;;;;;22.95;12.57;;;;;;;3.19;76.61;97304.44;4907877;28;105669;-72
2024/03/09 05:57:49;;;;;;;20.48;11.98;;;;;;;3.22;76.97;97310.16;4915864;28;105157;-73
2024/03/09 06:00:19;;;;;;;23.70;13.02;;;;;;;3.11;77.08;97311.25;4901318;28;103280;-73
2024/03/09 06:02:48;;;;;;;21.00;12.38;;;;;;;3.30;76.27;97309.38;4904560;28;104402;-73
2024/03/09 06:05:16;;;;;;;20.77;12.18;;;;;;;3.42;76.38;97302.06;4913271;28;102767;-73
2024/03/09 06:07:46;;;;;;;18.15;11.02;;;;;;;3.49;76.26;97300.47;4915065;28;102918;-73
2024/03/09 06:10:16;;;;;;;22.17;13.32;;;;;;;3.41;75.79;97290.78;4900082;28;106667;-72
2024/03/09 06:12:49;;;;;;;17.80;11.18;;;;;;;3.52;75.54;97301.94;4913103;28;107886;-73
2024/03/09 06:15:19;;;;;;;20.50;11.10;;;;;;;3.56;75.08;97308.50;4917678;28;103429;-73
2024/03/09 06:17:48;;;;;;;20.08;11.52;;;;;;;3.52;75.34;97312.44;4914695;28;102872;-73
2024/03/09 06:20:17;;;;;;;22.70;13.80;;;;;;;3.02;76.18;97322.63;4918903;28;103286;-72
2024/03/09 06:22:47;;;;;;;20.27;11.55;;;;;;;3.28;76.71;97317.38;4892898;28;106556;-72
2024/03/09 06:25:22;;;;;;;21.13;10.98;;;;;;;3.42;76.46;97307.28;4902926;28;102888;-72
2024/03/09 06:27:52;;;;;;;19.48;10.88;;;;;;;3.45;76.07;97323.50;4913994;28;102842;-71
2024/03/09 06:30:22;;;;;;;19.52;11.90;;;;;;;3.47;75.87;97316.34;4906361;28;103278;-72
2024/03/09 06:32:58;;;;;;;24.92;11.13;;;;;;;3.49;75.69;97316.97;4914344;28;108951;-73
2024/03/09 06:35:27;;;;;;;16.02;10.05;;;;;;;3.47;75.47;97308.47;4914698;28;103062;-72
2024/03/09 06:37:58;;;;;;;20.65;11.43;;;;;;;3.48;75.55;97307.50;4896545;28;103946;-73
2024/03/09 06:40:27;;;;;;;21.40;12.15;;;;;;;3.44;75.58;97316.63;4913857;28;102810;-75
2024/03/09 06:42:59;;;;;;;20.38;12.48;;;;;;;3.45;75.43;97312.25;4894484;28;104923;-75
2024/03/09 06:45:28;;;;;;;23.08;13.25;;;;;;;3.55;75.53;97317.34;4910288;28;103651;-75
2024/03/09 06:47:58;;;;;;;19.65;11.30;;;;;;;3.76;74.66;97314.31;4895413;28;102823;-72
2024/03/09 06:50:27;;;;;;;17.48;10.70;;;;;;;3.80;74.75;97326.94;4900867;28;105581;-71
2024/03/09 06:52:55;;;;;;;22.92;13.50;;;;;;;3.72;74.31;97319.06;4893675;28;106287;-72
2024/03/09 06:55:25;;;;;;;23.38;14.13;;;;;;;3.72;74.34;97324.28;4910457;28;103198;-73
2024/03/09 06:57:53;;;;;;;23.25;13.25;;;;;;;3.60;74.18;97326.38;4913640;28;102833;-72
2024/03/09 07:00:22;;;;;;;22.48;14.13;;;;;;;3.71;74.43;97320.03;4898278;28;106072;-71
2024/03/09 07:02:52;;;;;;;23.40;14.02;;;;;;;3.96;73.92;97330.59;4910744;28;107691;-72
2024/03/09 07:05:21;;;;;;;24.08;14.10;;;;;;;4.13;73.00;97320.97;4908757;28;103279;-72
2024/03/09 07:07:49;;;;;;;23.08;13.70;;;;;;;4.31;72.18;97328.69;4909909;28;104901;-71
2024/03/09 07:10:17;;;;;;;23.85;13.13;;;;;;;4.36;72.17;97334.25;4915283;28;103212;-71
2024/03/09 07:12:48;;;;;;;26.23;12.55;;;;;;;4.52;71.89;97332.63;4891414;28;111091;-72
2024/03/09 07:15:20;;;;;;;25.15;13.70;;;;;;;4.52;71.62;97336.09;4902240;28;102776;-73
2024/03/09 07:17:49;;;;;;;20.80;12.48;;;;;;;4.87;71.16;97338.53;4913908;28;102744;-73
2024/03/09 07:20:23;;;;;;;23.95;12.90;;;;;;;5.00;69.71;97336.22;4922559;28;103327;-79
2024/03/09 07:22:52;;;;;;;19.65;12.48;;;;;;;5.34;69.28;97335.16;4901503;28;111001;-75
2024/03/09 07:25:23;;;;;;;23.40;14.07;;;;;;;5.40;69.70;97329.25;4901567;28;103403;-74
2024/03/09 07:27:56;;;;;;;23.38;13.57;;;;;;;5.48;68.78;97331.84;4912877;28;102705;-74
2024/03/09 07:30:28;;;;;;;22.67;11.95;;;;;;;5.65;68.85;97331.78;4916754;28;105318;-85
2024/03/09 07:32:56;;;;;;;20.02;12.02;;;;;;;5.90;67.54;97329.06;4920124;28;103963;-84
2024/03/09 07:35:29;;;;;;;22.08;13.98;;;;;;;5.97;66.22;97324.72;4919053;28;102694;-86
2024/03/09 07:37:59;;;;;;;28.83;14.52;;;;;;;6.18;66.30;97326.78;4922055;28;102719;-83
2024/03/09 07:40:31;;;;;;;22.92;13.18;;;;;;;6.34;67.45;97323.25;4910635;28;107796;-87
2024/03/09 07:43:00;;;;;;;33.72;15.48;;;;;;;6.27;65.33;97322.28;4916305;28;105554;-76
2024/03/09 07:45:29;;;;;;;20.35;13.43;;;;;;;6.32;65.14;97317.31;4903343;28;102779;-75
2024/03/09 07:48:01;;;;;;;21.83;13.88;;;;;;;6.60;63.82;97322.03;4920864;28;102723;-75
2024/03/09 07:50:32;;;;;;;20.88;12.90;;;;;;;7.04;64.35;97323.97;4919075;28;103402;-75
2024/03/09 07:53:01;;;;;;;22.42;14.18;;;;;;;6.90;63.20;97319.50;4917397;28;103308;-75
2024/03/09 07:55:32;;;;;;;23.40;13.63;;;;;;;7.54;63.61;97326.09;4913797;28;103909;-75
2024/03/09 07:58:02;;;;;;;24.33;14.07;;;;;;;7.47;61.94;97326.00;4912050;28;103998;-74
2024/03/09 08:00:49;;;;;;;23.05;13.40;;;;;;;7.39;63.55;97329.56;4914795;28;106394;-74
2024/03/09 08:03:18;;;;;;;23.25;13.88;;;;;;;7.10;62.09;97330.31;4906606;28;103728;-75
2024/03/09 08:05:49;;;;;;;23.05;13.60;;;;;;;7.57;62.41;97325.72;4912653;28;102830;-74
2024/03/09 08:08:17;;;;;;;21.05;13.32;;;;;;;8.26;59.58;97321.88;4914847;28;102792;-75
2024/03/09 08:10:52;;;;;;;20.35;13.30;;;;;;;8.60;59.78;97336.25;4918696;28;103318;-75
2024/03/09 08:13:22;;;;;;;22.08;13.55;;;;;;;8.99;57.89;97340.22;4916473;28;104056;-75
2024/03/09 08:15:53;;;;;;;19.52;12.55;;;;;;;9.33;56.75;97343.94;4904431;28;102940;-77
2024/03/09 08:18:22;;;;;;;23.17;13.75;;;;;;;8.86;56.87;97346.22;4919756;28;102757;-78
2024/03/09 08:20:52;;;;;;;26.05;13.90;;;;;;;9.21;57.34;97337.53;4919491;28;106518;-73
2024/03/09 08:23:20;;;;;;;18.98;13.13;;;;;;;8.94;59.03;97329.41;4919670;28;103246;-73
2024/03/09 08:25:48;;;;;;;20.85;13.65;;;;;;;8.55;56.07;97333.34;4919622;28;102703;-74
2024/03/09 08:28:20;;;;;;;25.15;12.93;;;;;;;9.41;58.04;97325.25;4906825;28;102764;-72
2024/03/09 08:30:48;;;;;;;20.85;13.18;;;;;;;8.61;56.97;97328.13;4914117;28;109526;-69
2024/03/09 08:33:16;;;;;;;21.30;13.55;;;;;;;9.78;57.09;97333.78;4906685;28;106459;-70
2024/03/09 08:35:45;;;;;;;21.45;13.25;;;;;;;10.38;54.67;97322.63;4916393;28;103329;-71
2024/03/09 08:38:14;;;;;;;20.60;13.52;;;;;;;10.34;54.64;97326.66;4914995;28;102730;-72
2024/03/09 08:40:42;;;;;;;22.05;14.00;;;;;;;10.64;52.05;97321.03;4899748;28;103550;-78
2024/03/09 08:43:11;;;;;;;19.33;12.85;;;;;;;10.33;55.37;97325.03;4913623;28;103376;-77
2024/03/09 08:45:48;;;;;;;18.92;11.50;;;;;;;11.04;55.29;97318.38;4895156;28;103847;-75
2024/03/09 08:48:16;;;;;;;19.15;12.98;;;;;;;10.86;52.96;97324.31;4894436;28;103070;-81
2024/03/09 08:50:44;;;;;;;22.40;13.63;;;;;;;10.78;53.13;97333.28;4902818;28;106557;-77
2024/03/09 08:53:17;;;;;;;21.35;13.43;;;;;;;10.57;54.09;97314.91;4898789;28;105424;-80
2024/03/09 08:55:47;;;;;;;21.33;12.20;;;;;;;10.81;55.12;97332.06;4924312;28;102750;-79
2024/03/09 08:58:15;;;;;;;22.65;13.65;;;;;;;11.23;53.19;97329.19;4916889;28;102623;-76
2024/03/09 09:00:43;;;;;;;21.50;12.65;;;;;;;11.73;51.31;97318.06;4916711;28;103359;-75
2024/03/09 09:03:14;;;;;;;19.30;12.15;;;;;;;10.37;52.12;97318.34;4909634;28;103384;-72
2024/03/09 09:05:42;;;;;;;21.95;13.30;;;;;;;11.64;53.41;97311.34;4913442;28;103040;-76
2024/03/09 09:08:24;;;;;;;21.70;12.73;;;;;;;10.63;52.06;97313.31;4890089;28;102814;-75
2024/03/09 09:10:55;;;;;;;21.13;14.07;;;;;;;10.91;55.12;97307.78;4914094;28;104020;-74
2024/03/09 09:13:27;;;;;;;18.88;12.98;;;;;;;11.86;52.37;97307.41;4911557;28;103167;-77
2024/03/09 09:15:55;;;;;;;20.42;13.27;;;;;;;11.35;49.75;97301.03;4918145;28;103656;-80
2024/03/09 09:18:23;;;;;;;21.02;12.85;;;;;;;9.53;53.28;97298.28;4905320;28;102737;-77
2024/03/09 09:20:52;;;;;;;19.08;13.10;;;;;;;11.48;53.56;97299.38;4912539;28;105367;-79
2024/03/09 09:23:21;;;;;;;21.25;13.30;;;;;;;12.52;49.59;97289.50;4914265;28;104577;-74
2024/03/09 09:25:50;;;;;;;20.35;12.90;;;;;;;11.99;47.76;97285.31;4920519;28;102829;-73
2024/03/09 09:28:20;;;;;;;19.55;13.02;;;;;;;12.59;48.36;97284.16;4917095;28;102845;-80
2024/03/09 09:30:48;;;;;;;19.75;12.73;;;;;;;12.80;48.59;97284.78;4918162;28;103865;-78
2024/03/09 09:33:16;;;;;;;24.60;11.82;;;;;;;12.18;50.16;97283.56;4921728;28;103537;-77
2024/03/09 09:35:46;;;;;;;18.83;12.00;;;;;;;13.27;50.20;97274.56;4919772;28;103027;-77
2024/03/09 09:38:17;;;;;;;19.73;13.03;;;;;;;13.08;46.43;97277.19;4029596;28;10000221;-74
2024/03/09 09:40:48;;;;;;;21.20;12.70;;;;;;;12.85;51.26;97266.34;4907317;28;103111;-77
2024/03/09 09:43:18;;;;;;;20.83;13.35;;;;;;;13.05;48.58;97267.00;4920504;28;102812;-79
2024/03/09 09:45:51;;;;;;;19.48;12.05;;;;;;;13.60;47.56;97257.47;4922690;28;103357;-75
2024/03/09 09:48:20;;;;;;;17.98;11.15;;;;;;;13.90;46.69;97249.50;4918350;28;103463;-75
2024/03/09 09:50:49;;;;;;;22.83;11.88;;;;;;;13.16;47.62;97246.84;4917039;28;104120;-75
2024/03/09 09:53:18;;;;;;;19.05;12.68;;;;;;;12.73;48.22;97243.19;4918379;28;102790;-76
2024/03/09 09:55:47;;;;;;;18.83;12.27;;;;;;;13.07;48.84;97232.22;4917826;28;105793;-80
2024/03/09 09:58:15;;;;;;;20.25;11.93;;;;;;;12.95;48.80;97234.78;4915585;28;103136;-79
2024/03/09 10:00:43;;;;;;;17.35;12.23;;;;;;;11.76;48.73;97238.88;4016156;28;10000274;-77
2024/03/09 10:03:14;;;;;;;21.95;13.13;;;;;;;12.74;48.68;97236.00;4878130;28;104711;-78
2024/03/09 10:05:43;;;;;;;17.55;12.35;;;;;;;11.97;48.25;97239.59;4884384;28;102745;-77
2024/03/09 10:08:13;;;;;;;20.42;13.50;;;;;;;12.17;49.20;97234.19;4916182;28;102822;-77
2024/03/09 10:10:43;;;;;;;19.02;12.88;;;;;;;11.50;50.98;97218.59;4050077;28;10000493;-74
2024/03/09 10:13:14;;;;;;;18.48;12.65;;;;;;;12.44;50.50;97234.00;4916098;28;103210;-75
2024/03/09 10:15:44;;;;;;;19.27;13.30;;;;;;;11.60;48.98;97231.41;4917864;28;104623;-78
2024/03/09 10:18:16;;;;;;;18.13;12.07;;;;;;;12.54;49.52;97233.53;4911855;28;105486;-78
2024/03/09 10:20:44;;;;;;;19.10;12.85;;;;;;;13.39;48.95;97234.78;4919111;28;102700;-77
2024/03/09 10:23:13;;;;;;;17.77;12.65;;;;;;;13.30;47.33;97226.25;4911339;28;102736;-77
2024/03/09 10:25:45;;;;;;;16.65;11.77;;;;;;;13.33;47.51;97223.16;4923203;28;103956;-79
2024/03/09 10:28:15;;;;;;;15.05;10.60;;;;;;;13.48;47.51;97219.34;4905554;28;105953;-74
2024/03/09 10:30:44;;;;;;;16.67;11.80;;;;;;;13.66;47.13;97213.97;4904671;28;102765;-76
2024/03/09 10:33:15;;;;;;;17.88;10.88;;;;;;;13.87;47.06;97210.03;4915757;28;103084;-75
2024/03/09 10:35:46;;;;;;;16.52;10.63;;;;;;;14.19;46.69;97201.00;4911675;28;105524;-76
2024/03/09 10:38:18;;;;;;;17.00;11.27;;;;;;;14.21;45.92;97198.91;4911066;28;103312;-75
2024/03/09 10:40:46;;;;;;;17.30;10.80;;;;;;;14.15;47.03;97202.47;4916589;28;102702;-74
2024/03/09 10:43:20;;;;;;;17.15;10.15;;;;;;;14.03;45.67;97189.13;4920658;28;102840;-75
2024/03/09 10:45:51;;;;;;;17.23;11.10;;;;;;;13.71;46.41;97182.19;4917374;28;104606;-75
2024/03/09 10:48:21;;;;;;;16.95;10.77;;;;;;;14.07;46.17;97169.81;4912521;28;103280;-75
2024/03/09 10:51:02;;;;;;;15.18;10.18;;;;;;;14.75;44.86;97169.56;4905932;28;102793;-73
2024/03/09 10:53:54;;;;;;;15.13;9.57;;;;;;;14.67;43.86;97152.09;4921912;28;102881;-74
2024/03/09 10:56:23;;;;;;;14.10;9.07;;;;;;;14.71;44.31;97149.75;4912517;28;103614;-75
2024/03/09 10:58:52;;;;;;;17.25;9.57;;;;;;;13.87;44.72;97143.50;4893782;28;103585;-74
2024/03/09 11:01:23;;;;;;;15.48;9.93;;;;;;;14.04;44.68;97141.00;4910047;28;103064;-75
2024/03/09 11:03:58;;;;;;;16.33;9.50;;;;;;;14.21;43.16;97129.69;4914852;28;102850;-81
2024/03/09 11:06:28;;;;;;;13.68;9.15;;;;;;;14.88;43.86;97133.84;4889390;28;107735;-75
2024/03/09 11:08:59;;;;;;;15.32;9.02;;;;;;;14.70;42.70;97140.94;4915194;28;103225;-81
2024/03/09 11:11:31;;;;;;;14.23;9.32;;;;;;;15.04;43.03;97133.16;4903180;28;104147;-78
2024/03/09 11:14:02;;;;;;;14.27;8.65;;;;;;;15.23;42.26;97135.66;4897970;28;104063;-77
2024/03/09 11:16:33;;;;;;;12.35;8.45;;;;;;;15.48;42.08;97134.53;4893882;28;111459;-73
2024/03/09 11:19:03;;;;;;;13.00;7.50;;;;;;;15.65;42.81;97130.03;4917271;28;103884;-73
2024/03/09 11:21:34;;;;;;;14.10;7.85;;;;;;;15.85;41.30;97123.47;4912273;28;103143;-73
2024/03/09 11:24:07;;;;;;;12.82;8.45;;;;;;;15.68;42.01;97121.56;4916994;28;104487;-82
2024/03/09 11:26:40;;;;;;;12.75;8.32;;;;;;;14.94;42.65;97121.47;4912416;28;103132;-75
2024/03/09 11:29:11;;;;;;;12.38;7.97;;;;;;;15.21;41.42;97111.06;4889710;28;103314;-75
2024/03/09 11:31:42;;;;;;;11.95;7.35;;;;;;;16.08;40.44;97109.97;4915992;28;102909;-72